Terminal Aerodrome Forecast
Issued by NWS San Angelo, TX

Home | Current Version | Previous Version | Text Only | Print | Product List | Glossary On
Versions: 1 2 3 4 5 6 7 8 9 10 11 12 13 14 15 16 17 18 19 20 21 22 23
000
FTUS44 KSJT 111136
TAFSJT
TAF
KSJT 111136Z 1112/1212 21018G25KT P6SM OVC008
     FM111500 22015G23KT P6SM BKN025 BKN250
     FM111800 24017G27KT P6SM SCT250
     FM120000 24009KT P6SM SCT250
     FM120700 36006KT P6SM SCT250=

USA.gov is the U.S. government's official web portal to all federal, state and local government web resources and services.